Fords Creek, Mississippi
Current Conditions -  °F | °C
As of 4:20 AM on Friday 31 Oct 2014 (Local Time) from KBXA Reporting Station
NA  
Wind Chill:   Ceiling: NA
Heat Index:   Visibility: 10mi
Dew Point:   Wind: 0mph
Humidity: 88%   Direction: NA
Pressure: 30.05"   Gusts: NA
Location:  30.8781°N, 89.5858°W
Report Text: KBXA 310920Z AUTO 00000KT 10SM 06/04 A3005 RMK AO2 T00590041
Loading
Personal Weather Stations






























Interactive Weather Map
Tropical Storm Tracking
New forecast layout! Learn more

10-Day Weather Forecast

Advertisements
Track Severe Weather on mobile